sensor_id;sensor_type;location;lat;lon;timestamp;P1;durP1;ratioP1;P2;durP2;ratioP2
31694;SDS011;18289;51.330;4.946;2023-02-10T00:01:58;46.90;;;27.83;;
31694;SDS011;18289;51.330;4.946;2023-02-10T00:04:24;45.28;;;27.95;;
31694;SDS011;18289;51.330;4.946;2023-02-10T00:06:49;49.95;;;28.92;;
31694;SDS011;18289;51.330;4.946;2023-02-10T00:09:15;48.95;;;31.10;;
31694;SDS011;18289;51.330;4.946;2023-02-10T00:11:41;47.20;;;28.95;;
31694;SDS011;18289;51.330;4.946;2023-02-10T00:14:22;54.83;;;30.73;;
31694;SDS011;18289;51.330;4.946;2023-02-10T00:16:49;48.33;;;28.73;;
31694;SDS011;18289;51.330;4.946;2023-02-10T00:19:16;46.13;;;29.05;;
31694;SDS011;18289;51.330;4.946;2023-02-10T00:21:42;49.05;;;29.63;;
31694;SDS011;18289;51.330;4.946;2023-02-10T00:24:07;50.08;;;29.27;;
31694;SDS011;18289;51.330;4.946;2023-02-10T00:26:33;46.33;;;28.40;;
31694;SDS011;18289;51.330;4.946;2023-02-10T00:28:58;53.95;;;30.10;;
31694;SDS011;18289;51.330;4.946;2023-02-10T00:31:24;50.88;;;29.75;;
31694;SDS011;18289;51.330;4.946;2023-02-10T00:33:50;48.22;;;29.90;;
31694;SDS011;18289;51.330;4.946;2023-02-10T00:36:16;45.17;;;29.45;;
31694;SDS011;18289;51.330;4.946;2023-02-10T00:38:42;53.63;;;30.02;;
31694;SDS011;18289;51.330;4.946;2023-02-10T00:41:09;51.28;;;31.10;;
31694;SDS011;18289;51.330;4.946;2023-02-10T00:43:40;50.90;;;30.23;;
31694;SDS011;18289;51.330;4.946;2023-02-10T00:46:07;50.70;;;30.10;;
31694;SDS011;18289;51.330;4.946;2023-02-10T00:48:33;49.67;;;29.08;;
31694;SDS011;18289;51.330;4.946;2023-02-10T00:50:59;49.70;;;30.17;;
31694;SDS011;18289;51.330;4.946;2023-02-10T00:53:25;46.03;;;28.25;;
31694;SDS011;18289;51.330;4.946;2023-02-10T00:55:51;47.90;;;28.35;;
31694;SDS011;18289;51.330;4.946;2023-02-10T00:58:16;52.33;;;30.67;;
31694;SDS011;18289;51.330;4.946;2023-02-10T01:00:42;43.03;;;27.85;;
31694;SDS011;18289;51.330;4.946;2023-02-10T01:03:09;52.90;;;30.33;;
31694;SDS011;18289;51.330;4.946;2023-02-10T01:05:34;53.22;;;31.45;;
31694;SDS011;18289;51.330;4.946;2023-02-10T01:08:00;53.08;;;30.80;;
31694;SDS011;18289;51.330;4.946;2023-02-10T01:10:26;53.03;;;30.80;;
31694;SDS011;18289;51.330;4.946;2023-02-10T01:12:52;46.95;;;27.92;;
31694;SDS011;18289;51.330;4.946;2023-02-10T01:15:17;51.10;;;31.63;;
31694;SDS011;18289;51.330;4.946;2023-02-10T01:17:43;51.25;;;29.88;;
31694;SDS011;18289;51.330;4.946;2023-02-10T01:20:09;48.45;;;29.23;;
31694;SDS011;18289;51.330;4.946;2023-02-10T01:22:35;53.75;;;30.23;;
31694;SDS011;18289;51.330;4.946;2023-02-10T01:25:01;46.13;;;28.88;;
31694;SDS011;18289;51.330;4.946;2023-02-10T01:27:27;51.50;;;29.85;;
31694;SDS011;18289;51.330;4.946;2023-02-10T01:29:53;53.45;;;30.27;;
31694;SDS011;18289;51.330;4.946;2023-02-10T01:32:19;53.47;;;30.05;;
31694;SDS011;18289;51.330;4.946;2023-02-10T01:34:44;51.53;;;30.02;;
31694;SDS011;18289;51.330;4.946;2023-02-10T01:37:10;49.17;;;28.92;;
31694;SDS011;18289;51.330;4.946;2023-02-10T01:39:36;51.03;;;29.70;;
31694;SDS011;18289;51.330;4.946;2023-02-10T01:42:01;50.30;;;29.85;;
31694;SDS011;18289;51.330;4.946;2023-02-10T01:46:54;47.95;;;30.20;;
31694;SDS011;18289;51.330;4.946;2023-02-10T01:49:22;55.20;;;29.70;;
31694;SDS011;18289;51.330;4.946;2023-02-10T01:54:34;47.92;;;28.55;;
31694;SDS011;18289;51.330;4.946;2023-02-10T01:57:04;50.30;;;29.25;;
31694;SDS011;18289;51.330;4.946;2023-02-10T01:59:30;48.17;;;28.85;;
31694;SDS011;18289;51.330;4.946;2023-02-10T02:02:00;48.67;;;29.95;;
31694;SDS011;18289;51.330;4.946;2023-02-10T02:04:32;50.83;;;30.00;;
31694;SDS011;18289;51.330;4.946;2023-02-10T02:07:04;55.28;;;31.77;;
31694;SDS011;18289;51.330;4.946;2023-02-10T02:09:30;51.05;;;31.67;;
31694;SDS011;18289;51.330;4.946;2023-02-10T02:11:58;53.50;;;30.10;;
31694;SDS011;18289;51.330;4.946;2023-02-10T02:17:29;59.60;;;32.67;;
31694;SDS011;18289;51.330;4.946;2023-02-10T02:23:08;54.13;;;30.98;;
31694;SDS011;18289;51.330;4.946;2023-02-10T02:29:00;53.33;;;30.85;;
31694;SDS011;18289;51.330;4.946;2023-02-10T02:36:12;54.72;;;30.70;;
31694;SDS011;18289;51.330;4.946;2023-02-10T02:38:43;52.42;;;31.17;;
31694;SDS011;18289;51.330;4.946;2023-02-10T02:41:09;54.47;;;30.75;;
31694;SDS011;18289;51.330;4.946;2023-02-10T02:43:35;53.47;;;31.17;;
31694;SDS011;18289;51.330;4.946;2023-02-10T02:49:20;54.55;;;30.52;;
31694;SDS011;18289;51.330;4.946;2023-02-10T02:51:52;60.80;;;30.60;;
31694;SDS011;18289;51.330;4.946;2023-02-10T02:57:09;42.58;;;26.85;;
31694;SDS011;18289;51.330;4.946;2023-02-10T03:02:15;52.20;;;30.27;;
31694;SDS011;18289;51.330;4.946;2023-02-10T03:07:10;54.25;;;28.42;;
31694;SDS011;18289;51.330;4.946;2023-02-10T03:09:36;55.28;;;30.35;;
31694;SDS011;18289;51.330;4.946;2023-02-10T03:12:02;53.53;;;31.67;;
31694;SDS011;18289;51.330;4.946;2023-02-10T03:14:28;59.35;;;32.13;;
31694;SDS011;18289;51.330;4.946;2023-02-10T03:16:54;62.22;;;32.38;;
31694;SDS011;18289;51.330;4.946;2023-02-10T03:19:19;56.92;;;33.08;;
31694;SDS011;18289;51.330;4.946;2023-02-10T03:21:45;67.88;;;35.38;;
31694;SDS011;18289;51.330;4.946;2023-02-10T03:24:12;75.50;;;36.80;;
31694;SDS011;18289;51.330;4.946;2023-02-10T03:26:38;82.95;;;36.90;;
31694;SDS011;18289;51.330;4.946;2023-02-10T03:29:04;82.95;;;38.78;;
31694;SDS011;18289;51.330;4.946;2023-02-10T03:31:31;90.93;;;39.72;;
31694;SDS011;18289;51.330;4.946;2023-02-10T03:33:57;100.25;;;40.78;;
31694;SDS011;18289;51.330;4.946;2023-02-10T03:36:23;80.60;;;40.05;;
31694;SDS011;18289;51.330;4.946;2023-02-10T03:38:48;89.43;;;40.58;;
31694;SDS011;18289;51.330;4.946;2023-02-10T03:41:14;120.88;;;42.20;;
31694;SDS011;18289;51.330;4.946;2023-02-10T03:43:40;141.48;;;43.30;;
31694;SDS011;18289;51.330;4.946;2023-02-10T03:46:06;109.47;;;39.70;;
31694;SDS011;18289;51.330;4.946;2023-02-10T03:48:34;98.10;;;40.50;;
31694;SDS011;18289;51.330;4.946;2023-02-10T03:51:01;128.27;;;42.97;;
31694;SDS011;18289;51.330;4.946;2023-02-10T03:53:28;111.38;;;40.65;;
31694;SDS011;18289;51.330;4.946;2023-02-10T03:55:55;101.22;;;39.20;;
31694;SDS011;18289;51.330;4.946;2023-02-10T03:58:20;116.47;;;40.60;;
31694;SDS011;18289;51.330;4.946;2023-02-10T04:00:47;121.97;;;40.78;;
31694;SDS011;18289;51.330;4.946;2023-02-10T04:03:13;90.28;;;39.40;;
31694;SDS011;18289;51.330;4.946;2023-02-10T04:05:39;110.50;;;38.83;;
31694;SDS011;18289;51.330;4.946;2023-02-10T04:08:05;96.00;;;38.97;;
31694;SDS011;18289;51.330;4.946;2023-02-10T04:10:31;101.65;;;38.22;;
31694;SDS011;18289;51.330;4.946;2023-02-10T04:12:57;114.05;;;39.88;;
31694;SDS011;18289;51.330;4.946;2023-02-10T04:15:23;87.22;;;38.28;;
31694;SDS011;18289;51.330;4.946;2023-02-10T04:17:48;110.82;;;37.60;;
31694;SDS011;18289;51.330;4.946;2023-02-10T04:20:14;111.35;;;38.55;;
31694;SDS011;18289;51.330;4.946;2023-02-10T04:22:40;84.93;;;37.17;;
31694;SDS011;18289;51.330;4.946;2023-02-10T04:25:07;112.55;;;40.15;;
31694;SDS011;18289;51.330;4.946;2023-02-10T04:27:34;124.95;;;41.45;;
31694;SDS011;18289;51.330;4.946;2023-02-10T04:30:00;115.75;;;41.47;;
31694;SDS011;18289;51.330;4.946;2023-02-10T04:32:26;88.80;;;37.75;;
31694;SDS011;18289;51.330;4.946;2023-02-10T04:34:51;113.25;;;38.75;;
31694;SDS011;18289;51.330;4.946;2023-02-10T04:37:17;93.55;;;38.53;;
31694;SDS011;18289;51.330;4.946;2023-02-10T04:39:43;132.00;;;41.53;;
31694;SDS011;18289;51.330;4.946;2023-02-10T04:42:08;100.22;;;39.38;;
31694;SDS011;18289;51.330;4.946;2023-02-10T04:44:34;172.55;;;42.85;;
31694;SDS011;18289;51.330;4.946;2023-02-10T04:47:00;108.15;;;39.33;;
31694;SDS011;18289;51.330;4.946;2023-02-10T04:49:26;133.80;;;40.78;;
31694;SDS011;18289;51.330;4.946;2023-02-10T04:51:52;124.82;;;40.15;;
31694;SDS011;18289;51.330;4.946;2023-02-10T04:54:18;106.43;;;40.83;;
31694;SDS011;18289;51.330;4.946;2023-02-10T04:56:44;99.82;;;41.30;;
31694;SDS011;18289;51.330;4.946;2023-02-10T04:59:09;123.60;;;39.85;;
31694;SDS011;18289;51.330;4.946;2023-02-10T05:01:35;153.93;;;39.72;;
31694;SDS011;18289;51.330;4.946;2023-02-10T05:04:01;113.65;;;42.70;;
31694;SDS011;18289;51.330;4.946;2023-02-10T05:06:27;185.93;;;42.38;;
31694;SDS011;18289;51.330;4.946;2023-02-10T05:08:52;141.20;;;41.38;;
31694;SDS011;18289;51.330;4.946;2023-02-10T05:11:18;129.23;;;39.88;;
31694;SDS011;18289;51.330;4.946;2023-02-10T05:13:44;124.45;;;40.10;;
31694;SDS011;18289;51.330;4.946;2023-02-10T05:16:10;123.90;;;41.28;;
31694;SDS011;18289;51.330;4.946;2023-02-10T05:18:37;166.27;;;42.47;;
31694;SDS011;18289;51.330;4.946;2023-02-10T05:21:05;134.00;;;40.88;;
31694;SDS011;18289;51.330;4.946;2023-02-10T05:23:32;159.85;;;43.00;;
31694;SDS011;18289;51.330;4.946;2023-02-10T05:25:58;139.70;;;40.30;;
31694;SDS011;18289;51.330;4.946;2023-02-10T05:28:24;139.02;;;40.78;;
31694;SDS011;18289;51.330;4.946;2023-02-10T05:30:50;128.52;;;41.17;;
31694;SDS011;18289;51.330;4.946;2023-02-10T05:33:15;146.07;;;40.17;;
31694;SDS011;18289;51.330;4.946;2023-02-10T05:35:41;144.68;;;39.40;;
31694;SDS011;18289;51.330;4.946;2023-02-10T05:38:07;141.80;;;41.08;;
31694;SDS011;18289;51.330;4.946;2023-02-10T05:40:32;153.23;;;39.88;;
31694;SDS011;18289;51.330;4.946;2023-02-10T05:42:58;164.00;;;41.05;;
31694;SDS011;18289;51.330;4.946;2023-02-10T05:45:24;184.93;;;41.30;;
31694;SDS011;18289;51.330;4.946;2023-02-10T05:47:50;256.52;;;43.40;;
31694;SDS011;18289;51.330;4.946;2023-02-10T05:50:16;161.85;;;42.95;;
31694;SDS011;18289;51.330;4.946;2023-02-10T05:52:43;143.35;;;40.83;;
31694;SDS011;18289;51.330;4.946;2023-02-10T05:55:09;128.65;;;39.10;;
31694;SDS011;18289;51.330;4.946;2023-02-10T05:57:35;142.10;;;41.70;;
31694;SDS011;18289;51.330;4.946;2023-02-10T06:00:01;127.03;;;41.67;;
31694;SDS011;18289;51.330;4.946;2023-02-10T06:02:28;137.13;;;41.40;;
31694;SDS011;18289;51.330;4.946;2023-02-10T06:04:54;114.03;;;40.53;;
31694;SDS011;18289;51.330;4.946;2023-02-10T06:07:20;135.20;;;43.17;;
31694;SDS011;18289;51.330;4.946;2023-02-10T06:09:45;132.15;;;44.58;;
31694;SDS011;18289;51.330;4.946;2023-02-10T06:12:11;124.47;;;43.38;;
31694;SDS011;18289;51.330;4.946;2023-02-10T06:14:36;128.52;;;43.95;;
31694;SDS011;18289;51.330;4.946;2023-02-10T06:17:03;116.30;;;43.00;;
31694;SDS011;18289;51.330;4.946;2023-02-10T06:19:34;123.72;;;42.78;;
31694;SDS011;18289;51.330;4.946;2023-02-10T06:22:01;126.10;;;43.03;;
31694;SDS011;18289;51.330;4.946;2023-02-10T06:24:27;123.63;;;41.92;;
31694;SDS011;18289;51.330;4.946;2023-02-10T06:26:53;125.72;;;43.53;;
31694;SDS011;18289;51.330;4.946;2023-02-10T06:29:18;104.70;;;39.42;;
31694;SDS011;18289;51.330;4.946;2023-02-10T06:31:44;123.18;;;41.67;;
31694;SDS011;18289;51.330;4.946;2023-02-10T06:34:11;118.80;;;40.90;;
31694;SDS011;18289;51.330;4.946;2023-02-10T06:36:37;122.97;;;41.25;;
31694;SDS011;18289;51.330;4.946;2023-02-10T06:39:02;129.25;;;41.35;;
31694;SDS011;18289;51.330;4.946;2023-02-10T06:41:28;120.72;;;42.20;;
31694;SDS011;18289;51.330;4.946;2023-02-10T06:43:54;134.00;;;41.17;;
31694;SDS011;18289;51.330;4.946;2023-02-10T06:46:19;144.88;;;42.08;;
31694;SDS011;18289;51.330;4.946;2023-02-10T06:48:45;146.50;;;41.78;;
31694;SDS011;18289;51.330;4.946;2023-02-10T06:51:11;138.10;;;43.08;;
31694;SDS011;18289;51.330;4.946;2023-02-10T06:53:36;138.50;;;42.90;;
31694;SDS011;18289;51.330;4.946;2023-02-10T06:56:02;138.27;;;43.03;;
31694;SDS011;18289;51.330;4.946;2023-02-10T06:58:28;116.90;;;41.03;;
31694;SDS011;18289;51.330;4.946;2023-02-10T07:00:54;128.07;;;41.33;;
31694;SDS011;18289;51.330;4.946;2023-02-10T07:03:19;118.40;;;42.10;;
31694;SDS011;18289;51.330;4.946;2023-02-10T07:05:45;128.35;;;44.22;;
31694;SDS011;18289;51.330;4.946;2023-02-10T07:08:11;120.88;;;42.08;;
31694;SDS011;18289;51.330;4.946;2023-02-10T07:10:36;118.55;;;41.28;;
31694;SDS011;18289;51.330;4.946;2023-02-10T07:13:02;111.93;;;41.47;;
31694;SDS011;18289;51.330;4.946;2023-02-10T07:15:28;120.50;;;42.00;;
31694;SDS011;18289;51.330;4.946;2023-02-10T07:17:54;117.90;;;41.45;;
31694;SDS011;18289;51.330;4.946;2023-02-10T07:20:20;116.80;;;40.08;;
31694;SDS011;18289;51.330;4.946;2023-02-10T07:22:46;109.97;;;38.80;;
31694;SDS011;18289;51.330;4.946;2023-02-10T07:25:12;126.88;;;40.47;;
31694;SDS011;18289;51.330;4.946;2023-02-10T07:27:38;133.90;;;42.00;;
31694;SDS011;18289;51.330;4.946;2023-02-10T07:30:04;146.95;;;40.50;;
31694;SDS011;18289;51.330;4.946;2023-02-10T07:32:31;146.40;;;41.63;;
31694;SDS011;18289;51.330;4.946;2023-02-10T07:34:56;130.27;;;39.92;;
31694;SDS011;18289;51.330;4.946;2023-02-10T07:37:22;124.10;;;39.17;;
31694;SDS011;18289;51.330;4.946;2023-02-10T07:39:49;160.98;;;40.05;;
31694;SDS011;18289;51.330;4.946;2023-02-10T07:42:14;143.20;;;40.70;;
31694;SDS011;18289;51.330;4.946;2023-02-10T07:44:40;132.32;;;40.33;;
31694;SDS011;18289;51.330;4.946;2023-02-10T07:47:05;130.65;;;41.35;;
31694;SDS011;18289;51.330;4.946;2023-02-10T07:49:31;130.70;;;40.20;;
31694;SDS011;18289;51.330;4.946;2023-02-10T07:51:57;176.20;;;44.75;;
31694;SDS011;18289;51.330;4.946;2023-02-10T07:54:23;155.55;;;44.20;;
31694;SDS011;18289;51.330;4.946;2023-02-10T07:56:49;153.75;;;43.50;;
31694;SDS011;18289;51.330;4.946;2023-02-10T07:59:14;133.27;;;43.55;;
31694;SDS011;18289;51.330;4.946;2023-02-10T08:01:41;137.38;;;44.28;;
31694;SDS011;18289;51.330;4.946;2023-02-10T08:04:11;132.13;;;44.17;;
31694;SDS011;18289;51.330;4.946;2023-02-10T08:06:37;149.38;;;45.97;;
31694;SDS011;18289;51.330;4.946;2023-02-10T08:09:04;133.05;;;45.83;;
31694;SDS011;18289;51.330;4.946;2023-02-10T08:11:30;139.75;;;46.42;;
31694;SDS011;18289;51.330;4.946;2023-02-10T08:13:56;129.85;;;45.10;;
31694;SDS011;18289;51.330;4.946;2023-02-10T08:16:21;128.77;;;46.33;;
31694;SDS011;18289;51.330;4.946;2023-02-10T08:18:47;130.93;;;46.05;;
31694;SDS011;18289;51.330;4.946;2023-02-10T08:21:13;129.57;;;47.60;;
31694;SDS011;18289;51.330;4.946;2023-02-10T08:23:38;116.43;;;42.38;;
31694;SDS011;18289;51.330;4.946;2023-02-10T08:26:05;123.95;;;47.53;;
31694;SDS011;18289;51.330;4.946;2023-02-10T08:28:33;123.50;;;46.00;;
31694;SDS011;18289;51.330;4.946;2023-02-10T08:30:59;117.47;;;45.05;;
31694;SDS011;18289;51.330;4.946;2023-02-10T08:33:26;125.82;;;52.17;;
31694;SDS011;18289;51.330;4.946;2023-02-10T08:35:51;131.13;;;54.53;;
31694;SDS011;18289;51.330;4.946;2023-02-10T08:38:18;129.07;;;51.05;;
31694;SDS011;18289;51.330;4.946;2023-02-10T08:40:43;131.95;;;54.75;;
31694;SDS011;18289;51.330;4.946;2023-02-10T08:43:09;144.13;;;60.95;;
31694;SDS011;18289;51.330;4.946;2023-02-10T08:45:36;197.60;;;102.13;;
31694;SDS011;18289;51.330;4.946;2023-02-10T08:48:03;117.00;;;53.60;;
31694;SDS011;18289;51.330;4.946;2023-02-10T08:50:28;109.88;;;47.63;;
31694;SDS011;18289;51.330;4.946;2023-02-10T08:52:54;119.55;;;47.67;;
31694;SDS011;18289;51.330;4.946;2023-02-10T08:55:20;114.88;;;47.58;;
31694;SDS011;18289;51.330;4.946;2023-02-10T08:57:45;129.27;;;52.90;;
31694;SDS011;18289;51.330;4.946;2023-02-10T09:00:11;133.93;;;52.90;;
31694;SDS011;18289;51.330;4.946;2023-02-10T09:02:37;112.38;;;46.75;;
31694;SDS011;18289;51.330;4.946;2023-02-10T09:05:03;118.38;;;50.92;;
31694;SDS011;18289;51.330;4.946;2023-02-10T09:07:29;113.13;;;50.58;;
31694;SDS011;18289;51.330;4.946;2023-02-10T09:09:55;103.13;;;48.30;;
31694;SDS011;18289;51.330;4.946;2023-02-10T09:12:21;119.72;;;49.08;;
31694;SDS011;18289;51.330;4.946;2023-02-10T09:14:46;103.97;;;48.17;;
31694;SDS011;18289;51.330;4.946;2023-02-10T09:17:13;102.53;;;48.88;;
31694;SDS011;18289;51.330;4.946;2023-02-10T09:19:39;102.95;;;47.40;;
31694;SDS011;18289;51.330;4.946;2023-02-10T09:22:05;104.15;;;50.05;;
31694;SDS011;18289;51.330;4.946;2023-02-10T09:24:31;100.65;;;47.58;;
31694;SDS011;18289;51.330;4.946;2023-02-10T09:26:57;105.93;;;50.03;;
31694;SDS011;18289;51.330;4.946;2023-02-10T09:29:23;96.18;;;47.58;;
31694;SDS011;18289;51.330;4.946;2023-02-10T09:31:49;90.45;;;47.55;;
31694;SDS011;18289;51.330;4.946;2023-02-10T09:34:15;96.05;;;47.92;;
31694;SDS011;18289;51.330;4.946;2023-02-10T09:36:41;80.75;;;46.10;;
31694;SDS011;18289;51.330;4.946;2023-02-10T09:39:07;75.70;;;44.85;;
31694;SDS011;18289;51.330;4.946;2023-02-10T09:46:51;64.20;;;38.05;;
31694;SDS011;18289;51.330;4.946;2023-02-10T09:54:59;57.65;;;37.00;;
31694;SDS011;18289;51.330;4.946;2023-02-10T09:57:29;53.20;;;34.50;;
31694;SDS011;18289;51.330;4.946;2023-02-10T10:00:02;53.42;;;35.08;;
31694;SDS011;18289;51.330;4.946;2023-02-10T10:02:45;48.63;;;32.22;;
31694;SDS011;18289;51.330;4.946;2023-02-10T10:05:19;48.97;;;33.03;;
31694;SDS011;18289;51.330;4.946;2023-02-10T10:08:04;50.72;;;33.95;;
31694;SDS011;18289;51.330;4.946;2023-02-10T10:10:42;46.20;;;30.40;;
31694;SDS011;18289;51.330;4.946;2023-02-10T10:13:12;49.50;;;32.43;;
31694;SDS011;18289;51.330;4.946;2023-02-10T10:15:44;45.78;;;31.55;;
31694;SDS011;18289;51.330;4.946;2023-02-10T10:18:26;50.15;;;31.95;;
31694;SDS011;18289;51.330;4.946;2023-02-10T10:21:14;44.92;;;30.90;;
31694;SDS011;18289;51.330;4.946;2023-02-10T10:26:56;45.88;;;31.08;;
31694;SDS011;18289;51.330;4.946;2023-02-10T10:29:39;44.25;;;30.98;;
31694;SDS011;18289;51.330;4.946;2023-02-10T10:32:35;44.33;;;30.27;;
31694;SDS011;18289;51.330;4.946;2023-02-10T10:35:17;42.08;;;28.92;;
31694;SDS011;18289;51.330;4.946;2023-02-10T10:37:49;41.25;;;28.73;;
31694;SDS011;18289;51.330;4.946;2023-02-10T10:40:17;39.72;;;28.02;;
31694;SDS011;18289;51.330;4.946;2023-02-10T10:42:50;42.78;;;29.38;;
31694;SDS011;18289;51.330;4.946;2023-02-10T10:45:34;39.50;;;27.23;;
31694;SDS011;18289;51.330;4.946;2023-02-10T10:48:11;41.72;;;29.10;;
31694;SDS011;18289;51.330;4.946;2023-02-10T10:50:46;40.42;;;28.40;;
31694;SDS011;18289;51.330;4.946;2023-02-10T10:53:16;41.65;;;28.20;;
31694;SDS011;18289;51.330;4.946;2023-02-10T10:55:48;37.00;;;27.63;;
31694;SDS011;18289;51.330;4.946;2023-02-10T10:58:23;36.97;;;26.75;;
31694;SDS011;18289;51.330;4.946;2023-02-10T11:00:50;39.58;;;26.92;;
31694;SDS011;18289;51.330;4.946;2023-02-10T11:03:18;37.08;;;26.55;;
31694;SDS011;18289;51.330;4.946;2023-02-10T11:05:44;37.67;;;26.85;;
31694;SDS011;18289;51.330;4.946;2023-02-10T11:08:27;36.05;;;26.63;;
31694;SDS011;18289;51.330;4.946;2023-02-10T11:10:58;38.72;;;26.58;;
31694;SDS011;18289;51.330;4.946;2023-02-10T11:13:28;41.30;;;28.65;;
31694;SDS011;18289;51.330;4.946;2023-02-10T11:18:26;37.28;;;27.13;;
31694;SDS011;18289;51.330;4.946;2023-02-10T11:20:59;34.75;;;26.05;;
31694;SDS011;18289;51.330;4.946;2023-02-10T11:23:27;38.40;;;26.30;;
31694;SDS011;18289;51.330;4.946;2023-02-10T11:25:58;35.25;;;26.35;;
31694;SDS011;18289;51.330;4.946;2023-02-10T11:28:30;34.25;;;25.90;;
31694;SDS011;18289;51.330;4.946;2023-02-10T11:30:58;33.22;;;25.20;;
31694;SDS011;18289;51.330;4.946;2023-02-10T11:33:30;34.08;;;25.63;;
31694;SDS011;18289;51.330;4.946;2023-02-10T11:38:27;36.35;;;26.27;;
31694;SDS011;18289;51.330;4.946;2023-02-10T11:40:54;30.63;;;24.60;;
31694;SDS011;18289;51.330;4.946;2023-02-10T11:46:01;32.67;;;26.02;;
31694;SDS011;18289;51.330;4.946;2023-02-10T11:48:29;34.00;;;26.40;;
31694;SDS011;18289;51.330;4.946;2023-02-10T11:53:31;31.50;;;23.65;;
31694;SDS011;18289;51.330;4.946;2023-02-10T12:01:55;31.67;;;24.23;;
31694;SDS011;18289;51.330;4.946;2023-02-10T12:10:16;28.65;;;21.65;;
31694;SDS011;18289;51.330;4.946;2023-02-10T12:13:06;28.58;;;22.92;;
31694;SDS011;18289;51.330;4.946;2023-02-10T12:26:54;33.97;;;26.58;;
31694;SDS011;18289;51.330;4.946;2023-02-10T12:29:40;40.28;;;27.70;;
31694;SDS011;18289;51.330;4.946;2023-02-10T12:44:04;39.67;;;28.23;;
31694;SDS011;18289;51.330;4.946;2023-02-10T12:54:48;45.28;;;30.20;;
31694;SDS011;18289;51.330;4.946;2023-02-10T12:57:22;44.58;;;28.88;;
31694;SDS011;18289;51.330;4.946;2023-02-10T13:08:12;47.45;;;29.10;;
31694;SDS011;18289;51.330;4.946;2023-02-10T13:10:46;42.75;;;28.80;;
31694;SDS011;18289;51.330;4.946;2023-02-10T13:16:00;45.10;;;29.88;;
31694;SDS011;18289;51.330;4.946;2023-02-10T13:18:35;48.22;;;30.13;;
31694;SDS011;18289;51.330;4.946;2023-02-10T13:21:12;42.67;;;28.35;;
31694;SDS011;18289;51.330;4.946;2023-02-10T13:24:21;44.33;;;26.00;;
31694;SDS011;18289;51.330;4.946;2023-02-10T13:32:50;42.88;;;25.80;;
31694;SDS011;18289;51.330;4.946;2023-02-10T13:35:31;43.42;;;26.20;;
31694;SDS011;18289;51.330;4.946;2023-02-10T13:37:58;39.35;;;25.75;;
31694;SDS011;18289;51.330;4.946;2023-02-10T13:40:50;42.88;;;27.27;;
31694;SDS011;18289;51.330;4.946;2023-02-10T13:43:43;41.08;;;25.30;;
31694;SDS011;18289;51.330;4.946;2023-02-10T13:46:21;38.80;;;23.73;;
31694;SDS011;18289;51.330;4.946;2023-02-10T13:48:52;37.13;;;24.58;;
31694;SDS011;18289;51.330;4.946;2023-02-10T13:51:28;38.92;;;24.33;;
31694;SDS011;18289;51.330;4.946;2023-02-10T13:54:01;41.03;;;23.85;;
31694;SDS011;18289;51.330;4.946;2023-02-10T13:56:29;38.75;;;23.33;;
31694;SDS011;18289;51.330;4.946;2023-02-10T14:01:41;37.03;;;22.90;;
31694;SDS011;18289;51.330;4.946;2023-02-10T14:06:44;40.63;;;24.02;;
31694;SDS011;18289;51.330;4.946;2023-02-10T14:11:56;39.83;;;22.38;;
31694;SDS011;18289;51.330;4.946;2023-02-10T14:19:38;35.63;;;21.27;;
31694;SDS011;18289;51.330;4.946;2023-02-10T14:22:06;34.05;;;22.15;;
31694;SDS011;18289;51.330;4.946;2023-02-10T14:28:13;38.20;;;22.52;;
31694;SDS011;18289;51.330;4.946;2023-02-10T14:30:45;35.92;;;22.05;;
31694;SDS011;18289;51.330;4.946;2023-02-10T14:33:24;36.20;;;21.15;;
31694;SDS011;18289;51.330;4.946;2023-02-10T14:35:59;37.63;;;21.70;;
31694;SDS011;18289;51.330;4.946;2023-02-10T14:38:28;35.13;;;22.00;;
31694;SDS011;18289;51.330;4.946;2023-02-10T14:40:56;32.58;;;20.90;;
31694;SDS011;18289;51.330;4.946;2023-02-10T14:43:27;34.70;;;20.55;;
31694;SDS011;18289;51.330;4.946;2023-02-10T14:45:56;35.58;;;21.77;;
31694;SDS011;18289;51.330;4.946;2023-02-10T14:48:23;34.10;;;20.42;;
31694;SDS011;18289;51.330;4.946;2023-02-10T14:50:58;34.75;;;20.23;;
31694;SDS011;18289;51.330;4.946;2023-02-10T14:53:29;37.30;;;21.27;;
31694;SDS011;18289;51.330;4.946;2023-02-10T14:55:59;35.08;;;22.13;;
31694;SDS011;18289;51.330;4.946;2023-02-10T14:58:26;35.28;;;21.85;;
31694;SDS011;18289;51.330;4.946;2023-02-10T15:03:23;40.97;;;23.48;;
31694;SDS011;18289;51.330;4.946;2023-02-10T15:05:50;38.90;;;22.52;;
31694;SDS011;18289;51.330;4.946;2023-02-10T15:08:24;38.78;;;22.75;;
31694;SDS011;18289;51.330;4.946;2023-02-10T15:10:57;41.65;;;21.80;;
31694;SDS011;18289;51.330;4.946;2023-02-10T15:13:25;39.78;;;22.52;;
31694;SDS011;18289;51.330;4.946;2023-02-10T15:15:59;39.17;;;22.45;;
31694;SDS011;18289;51.330;4.946;2023-02-10T15:18:26;44.90;;;23.15;;
31694;SDS011;18289;51.330;4.946;2023-02-10T15:23:25;40.40;;;22.85;;
31694;SDS011;18289;51.330;4.946;2023-02-10T15:28:44;38.97;;;22.35;;
31694;SDS011;18289;51.330;4.946;2023-02-10T15:33:39;43.88;;;21.35;;
31694;SDS011;18289;51.330;4.946;2023-02-10T15:44:22;42.53;;;23.60;;
31694;SDS011;18289;51.330;4.946;2023-02-10T15:47:17;45.50;;;23.80;;
31694;SDS011;18289;51.330;4.946;2023-02-10T15:49:52;47.60;;;24.55;;
31694;SDS011;18289;51.330;4.946;2023-02-10T15:52:32;46.47;;;24.70;;
31694;SDS011;18289;51.330;4.946;2023-02-10T15:55:04;45.17;;;24.27;;
31694;SDS011;18289;51.330;4.946;2023-02-10T15:57:38;49.00;;;25.08;;
31694;SDS011;18289;51.330;4.946;2023-02-10T16:00:05;51.72;;;25.33;;
31694;SDS011;18289;51.330;4.946;2023-02-10T16:02:42;49.00;;;24.48;;
31694;SDS011;18289;51.330;4.946;2023-02-10T16:05:08;49.45;;;24.55;;
31694;SDS011;18289;51.330;4.946;2023-02-10T16:07:34;56.25;;;26.73;;
31694;SDS011;18289;51.330;4.946;2023-02-10T16:09:59;50.80;;;25.35;;
31694;SDS011;18289;51.330;4.946;2023-02-10T16:12:25;51.88;;;24.38;;
31694;SDS011;18289;51.330;4.946;2023-02-10T16:14:51;48.75;;;25.00;;
31694;SDS011;18289;51.330;4.946;2023-02-10T16:17:19;45.28;;;23.70;;
31694;SDS011;18289;51.330;4.946;2023-02-10T16:19:48;47.22;;;23.00;;
31694;SDS011;18289;51.330;4.946;2023-02-10T16:22:14;53.63;;;26.15;;
31694;SDS011;18289;51.330;4.946;2023-02-10T16:24:39;49.50;;;24.63;;
31694;SDS011;18289;51.330;4.946;2023-02-10T16:27:05;48.03;;;24.90;;
31694;SDS011;18289;51.330;4.946;2023-02-10T16:29:31;49.40;;;25.15;;
31694;SDS011;18289;51.330;4.946;2023-02-10T16:31:57;48.90;;;24.98;;
31694;SDS011;18289;51.330;4.946;2023-02-10T16:34:24;48.42;;;25.05;;
31694;SDS011;18289;51.330;4.946;2023-02-10T16:36:53;51.92;;;26.33;;
31694;SDS011;18289;51.330;4.946;2023-02-10T16:39:20;56.28;;;26.70;;
31694;SDS011;18289;51.330;4.946;2023-02-10T16:41:49;46.50;;;25.90;;
31694;SDS011;18289;51.330;4.946;2023-02-10T16:44:16;51.22;;;25.73;;
31694;SDS011;18289;51.330;4.946;2023-02-10T16:46:43;51.53;;;26.83;;
31694;SDS011;18289;51.330;4.946;2023-02-10T16:49:12;55.30;;;27.75;;
31694;SDS011;18289;51.330;4.946;2023-02-10T16:51:39;51.92;;;25.77;;
31694;SDS011;18289;51.330;4.946;2023-02-10T16:54:05;50.17;;;25.45;;